PWSweather.com
Personal Weather Stations
Station Observations
PENICUIKWS
PenicuikGB

PenicuikGB

Lat: 55.830932, Lon: -3.224533000000065

Elevation: 166

Station Type: Fine Offset

http://weather.penicuik.org

High Low Average
Temperature 52.3°F11.3°C 41.0°F5.0°C 45.8°F7.7°C
Dew Point 46.0°F7.8°C 34.0°F1.1°C 39.3°F4.1°C
Winds 10.5 mph 16.9 kmh 2.2 mph 3.5 kmh 6.0 mph S9.7 kmh S
Wind Gusts 19.7 mph31.7 kmh 3.8 mph6.1 kmh 10.0 mph16.1 kmh
Humidity 87% 65% 78%
Pressure 30.07 in1018.3 mb 29.73 in1006.8 mb -
Precipitation 0.05 in1.3 mm - -
Hour Temp Dew Point Humidity Winds Wind Gusts Pressure Precip Precip Rate Daily Precip Total
12:15 AM 41.0°F5.0°C 35.9°F2.2°C 82% 2.9 mph NNE4.7 kmh NNE 4.5 mph7.2 kmh 30.07 in1018.3 mb 0.00 in0.0 mm 0.00 in0.0 mm 0.00 in0.0 mm
12:30 AM 41.0°F5.0°C 35.9°F2.2°C 82% 3.6 mph WNW5.8 kmh WNW 9.8 mph15.8 kmh 30.07 in1018.3 mb 0.00 in0.0 mm 0.00 in0.0 mm 0.00 in0.0 mm
12:45 AM 41.2°F5.1°C 36.1°F2.3°C 82% 3.8 mph W6.1 kmh W 6.9 mph11.1 kmh 30.06 in1017.9 mb 0.00 in0.0 mm 0.00 in0.0 mm 0.00 in0.0 mm
01:00 AM 41.7°F5.4°C 36.6°F2.6°C 82% 3.6 mph WNW5.8 kmh WNW 6.0 mph9.7 kmh 30.05 in1017.6 mb 0.00 in0.0 mm 0.00 in0.0 mm 0.00 in0.0 mm
01:15 AM 41.4°F5.2°C 36.3°F2.4°C 82% 2.2 mph WNW3.5 kmh WNW 3.8 mph6.1 kmh 30.05 in1017.6 mb 0.00 in0.0 mm 0.00 in0.0 mm 0.00 in0.0 mm
01:30 AM 41.7°F5.4°C 36.9°F2.7°C 83% 3.5 mph N5.6 kmh N 4.5 mph7.2 kmh 30.05 in1017.6 mb 0.00 in0.0 mm 0.00 in0.0 mm 0.00 in0.0 mm
01:45 AM 42.3°F5.7°C 37.5°F3.1°C 83% 4.9 mph NNW7.9 kmh NNW 8.3 mph13.4 kmh 30.05 in1017.6 mb 0.00 in0.0 mm 0.00 in0.0 mm 0.00 in0.0 mm
02:00 AM 42.4°F5.8°C 37.7°F3.2°C 83% 4.2 mph NW6.8 kmh NW 8.3 mph13.4 kmh 30.04 in1017.3 mb 0.00 in0.0 mm 0.00 in0.0 mm 0.00 in0.0 mm
02:15 AM 42.8°F6.0°C 37.7°F3.2°C 82% 3.6 mph NW5.8 kmh NW 6.9 mph11.1 kmh 30.04 in1017.3 mb 0.00 in0.0 mm 0.00 in0.0 mm 0.00 in0.0 mm
02:30 AM 43.0°F6.1°C 37.6°F3.1°C 81% 6.9 mph SE11.1 kmh SE 15.2 mph24.5 kmh 30.03 in1016.9 mb 0.00 in0.0 mm 0.00 in0.0 mm 0.00 in0.0 mm
02:45 AM 43.2°F6.2°C 37.7°F3.2°C 81% 4.5 mph E7.2 kmh E 8.3 mph13.4 kmh 30.02 in1016.6 mb 0.00 in0.0 mm 0.00 in0.0 mm 0.00 in0.0 mm
03:00 AM 43.2°F6.2°C 37.4°F3.0°C 80% 6.0 mph NW9.7 kmh NW 9.2 mph14.8 kmh 30.00 in1015.9 mb 0.00 in0.0 mm 0.00 in0.0 mm 0.00 in0.0 mm
03:15 AM 43.2°F6.2°C 37.7°F3.2°C 81% 4.5 mph S7.2 kmh S 7.6 mph12.2 kmh 29.99 in1015.6 mb 0.00 in0.0 mm 0.00 in0.0 mm 0.00 in0.0 mm
03:30 AM 43.2°F6.2°C 37.7°F3.2°C 81% 5.2 mph WNW8.4 kmh WNW 9.8 mph15.8 kmh 29.99 in1015.6 mb 0.00 in0.0 mm 0.00 in0.0 mm 0.00 in0.0 mm
03:45 AM 43.5°F6.4°C 38.4°F3.6°C 82% 5.9 mph NW9.5 kmh NW 9.2 mph14.8 kmh 29.98 in1015.2 mb 0.00 in0.0 mm 0.00 in0.0 mm 0.00 in0.0 mm
04:00 AM 43.7°F6.5°C 38.6°F3.7°C 82% 5.1 mph NW8.2 kmh NW 7.6 mph12.2 kmh 29.97 in1014.9 mb 0.00 in0.0 mm 0.00 in0.0 mm 0.00 in0.0 mm
04:15 AM 43.5°F6.4°C 38.4°F3.6°C 82% 4.8 mph SW7.7 kmh SW 12.1 mph19.5 kmh 29.97 in1014.9 mb 0.00 in0.0 mm 0.00 in0.0 mm 0.00 in0.0 mm
05:00 AM 44.1°F6.7°C 39.5°F4.2°C 84% 4.2 mph NNE6.8 kmh NNE 9.2 mph14.8 kmh 29.94 in1013.9 mb 0.00 in0.0 mm 0.00 in0.0 mm 0.00 in0.0 mm
05:15 AM 44.2°F6.8°C 39.4°F4.1°C 83% 4.6 mph WNW7.4 kmh WNW 9.2 mph14.8 kmh 29.94 in1013.9 mb 0.00 in0.0 mm 0.00 in0.0 mm 0.00 in0.0 mm
05:30 AM 44.1°F6.7°C 39.2°F4.0°C 83% 4.6 mph SSW7.4 kmh SSW 8.3 mph13.4 kmh 29.94 in1013.9 mb 0.00 in0.0 mm 0.00 in0.0 mm 0.00 in0.0 mm
05:45 AM 44.1°F6.7°C 39.5°F4.2°C 84% 4.4 mph NNE7.1 kmh NNE 6.9 mph11.1 kmh 29.92 in1013.2 mb 0.00 in0.0 mm 0.00 in0.0 mm 0.00 in0.0 mm
06:00 AM 44.1°F6.7°C 39.8°F4.3°C 85% 5.1 mph S8.2 kmh S 7.6 mph12.2 kmh 29.91 in1012.9 mb 0.00 in0.0 mm 0.00 in0.0 mm 0.00 in0.0 mm
06:15 AM 44.2°F6.8°C 40.0°F4.4°C 85% 4.8 mph W7.7 kmh W 10.7 mph17.2 kmh 29.91 in1012.9 mb 0.00 in0.0 mm 0.00 in0.0 mm 0.00 in0.0 mm
06:30 AM 44.8°F7.1°C 39.9°F4.4°C 83% 4.2 mph SE6.8 kmh SE 6.9 mph11.1 kmh 29.91 in1012.9 mb 0.00 in0.0 mm 0.00 in0.0 mm 0.00 in0.0 mm
06:45 AM 44.8°F7.1°C 39.6°F4.2°C 82% 4.4 mph NW7.1 kmh NW 7.6 mph12.2 kmh 29.89 in1012.2 mb 0.00 in0.0 mm 0.00 in0.0 mm 0.00 in0.0 mm
07:00 AM 45.0°F7.2°C 39.8°F4.3°C 82% 4.3 mph WSW6.9 kmh WSW 9.2 mph14.8 kmh 29.89 in1012.2 mb 0.00 in0.0 mm 0.00 in0.0 mm 0.00 in0.0 mm
07:15 AM 45.0°F7.2°C 40.1°F4.5°C 83% 5.1 mph NNW8.2 kmh NNW 8.3 mph13.4 kmh 29.87 in1011.5 mb 0.00 in0.0 mm 0.00 in0.0 mm 0.00 in0.0 mm
07:30 AM 45.3°F7.4°C 40.5°F4.7°C 83% 6.7 mph NW10.8 kmh NW 11.4 mph18.3 kmh 29.86 in1011.2 mb 0.00 in0.0 mm 0.00 in0.0 mm 0.00 in0.0 mm
07:45 AM 46.0°F7.8°C 40.9°F4.9°C 82% 5.7 mph SE9.2 kmh SE 12.1 mph19.5 kmh 29.84 in1010.5 mb 0.00 in0.0 mm 0.00 in0.0 mm 0.00 in0.0 mm
08:00 AM 46.4°F8.0°C 40.9°F4.9°C 81% 8.7 mph NW14.0 kmh NW 19.7 mph31.7 kmh 29.84 in1010.5 mb 0.01 in0.3 mm 0.01 in0.3 mm 0.01 in0.3 mm
08:15 AM 46.0°F7.8°C 40.9°F4.9°C 82% 6.7 mph NNW10.8 kmh NNW 13.0 mph20.9 kmh 29.83 in1010.2 mb 0.01 in0.3 mm 0.00 in0.0 mm 0.01 in0.3 mm
08:30 AM 45.9°F7.7°C 41.3°F5.2°C 84% 7.3 mph SW11.7 kmh SW 15.9 mph25.6 kmh 29.82 in1009.8 mb 0.01 in0.3 mm 0.00 in0.0 mm 0.01 in0.3 mm
08:45 AM 46.0°F7.8°C 41.5°F5.3°C 84% 6.4 mph ENE10.3 kmh ENE 12.1 mph19.5 kmh 29.80 in1009.1 mb 0.01 in0.3 mm 0.00 in0.0 mm 0.01 in0.3 mm
09:00 AM 46.8°F8.2°C 42.5°F5.8°C 85% 6.5 mph SE10.5 kmh SE 10.7 mph17.2 kmh 29.81 in1009.5 mb 0.00 in0.0 mm 0.00 in0.0 mm 0.01 in0.3 mm
09:15 AM 46.8°F8.2°C 42.5°F5.8°C 85% 4.5 mph W7.2 kmh W 7.6 mph12.2 kmh 29.80 in1009.1 mb 0.01 in0.3 mm 0.04 in1.0 mm 0.02 in0.5 mm
09:30 AM 46.9°F8.3°C 43.0°F6.1°C 86% 4.3 mph SE6.9 kmh SE 8.3 mph13.4 kmh 29.79 in1008.8 mb 0.01 in0.3 mm 0.00 in0.0 mm 0.02 in0.5 mm
09:45 AM 47.1°F8.4°C 43.2°F6.2°C 86% 4.5 mph N7.2 kmh N 4.5 mph7.2 kmh 29.78 in1008.5 mb 0.01 in0.3 mm 0.00 in0.0 mm 0.02 in0.5 mm
10:00 AM 48.0°F8.9°C 44.3°F6.8°C 87% 7.4 mph WSW11.9 kmh WSW 11.4 mph18.3 kmh 29.75 in1007.5 mb 0.01 in0.3 mm 0.00 in0.0 mm 0.02 in0.5 mm
10:15 AM 48.2°F9.0°C 44.2°F6.8°C 86% 6.6 mph WNW10.6 kmh WNW 9.8 mph15.8 kmh 29.75 in1007.5 mb 0.01 in0.3 mm 0.00 in0.0 mm 0.04 in1.0 mm
10:30 AM 48.7°F9.3°C 45.0°F7.2°C 87% 6.8 mph WNW10.9 kmh WNW 13.0 mph20.9 kmh 29.75 in1007.5 mb 0.01 in0.3 mm 0.00 in0.0 mm 0.04 in1.0 mm
10:45 AM 49.3°F9.6°C 45.3°F7.4°C 86% 5.3 mph SSW8.5 kmh SSW 11.4 mph18.3 kmh 29.76 in1007.8 mb 0.01 in0.3 mm 0.00 in0.0 mm 0.04 in1.0 mm
11:15 AM 50.2°F10.1°C 45.9°F7.7°C 85% 5.7 mph S9.2 kmh S 12.1 mph19.5 kmh 29.74 in1007.1 mb 0.00 in0.0 mm 0.00 in0.0 mm 0.04 in1.0 mm
11:30 AM 51.1°F10.6°C 45.8°F7.7°C 82% 9.9 mph W15.9 kmh W 15.9 mph25.6 kmh 29.73 in1006.8 mb 0.00 in0.0 mm 0.00 in0.0 mm 0.04 in1.0 mm
11:45 AM 51.3°F10.7°C 46.0°F7.8°C 82% 6.6 mph W10.6 kmh W 13.0 mph20.9 kmh 29.74 in1007.1 mb 0.00 in0.0 mm 0.00 in0.0 mm 0.04 in1.0 mm
12:00 PM 51.8°F11.0°C 45.5°F7.5°C 79% 8.8 mph SW14.2 kmh SW 14.5 mph23.3 kmh 29.76 in1007.8 mb 0.00 in0.0 mm 0.00 in0.0 mm 0.04 in1.0 mm
12:15 PM 52.2°F11.2°C 44.8°F7.1°C 76% 8.8 mph SSE14.2 kmh SSE 14.5 mph23.3 kmh 29.74 in1007.1 mb 0.00 in0.0 mm 0.00 in0.0 mm 0.04 in1.0 mm
12:30 PM 52.3°F11.3°C 44.7°F7.1°C 75% 8.4 mph SW13.5 kmh SW 12.1 mph19.5 kmh 29.75 in1007.5 mb 0.00 in0.0 mm 0.00 in0.0 mm 0.04 in1.0 mm
12:45 PM 52.3°F11.3°C 44.3°F6.8°C 74% 6.9 mph SE11.1 kmh SE 9.8 mph15.8 kmh 29.77 in1008.1 mb 0.00 in0.0 mm 0.00 in0.0 mm 0.04 in1.0 mm
01:00 PM 52.3°F11.3°C 44.3°F6.8°C 74% 7.4 mph SW11.9 kmh SW 13.6 mph21.9 kmh 29.75 in1007.5 mb 0.00 in0.0 mm 0.00 in0.0 mm 0.04 in1.0 mm
01:15 PM 52.2°F11.2°C 43.1°F6.2°C 71% 7.8 mph SSW12.6 kmh SSW 12.1 mph19.5 kmh 29.77 in1008.1 mb 0.00 in0.0 mm 0.00 in0.0 mm 0.04 in1.0 mm
01:30 PM 51.8°F11.0°C 43.1°F6.2°C 72% 10.5 mph SW16.9 kmh SW 15.2 mph24.5 kmh 29.77 in1008.1 mb 0.00 in0.0 mm 0.00 in0.0 mm 0.04 in1.0 mm
01:45 PM 51.6°F10.9°C 42.9°F6.1°C 72% 8.6 mph WSW13.8 kmh WSW 13.0 mph20.9 kmh 29.75 in1007.5 mb 0.00 in0.0 mm 0.00 in0.0 mm 0.04 in1.0 mm
02:00 PM 51.4°F10.8°C 43.1°F6.2°C 73% 7.8 mph S12.6 kmh S 12.1 mph19.5 kmh 29.77 in1008.1 mb 0.00 in0.0 mm 0.00 in0.0 mm 0.04 in1.0 mm
02:15 PM 50.9°F10.5°C 42.2°F5.7°C 72% 8.0 mph SW12.9 kmh SW 17.4 mph28.0 kmh 29.75 in1007.5 mb 0.00 in0.0 mm 0.00 in0.0 mm 0.04 in1.0 mm
02:30 PM 50.7°F10.4°C 42.4°F5.8°C 73% 6.4 mph S10.3 kmh S 11.4 mph18.3 kmh 29.76 in1007.8 mb 0.00 in0.0 mm 0.00 in0.0 mm 0.04 in1.0 mm
05:45 PM 50.7°F10.4°C 42.0°F5.6°C 72% 9.2 mph NW14.8 kmh NW 9.2 mph14.8 kmh 29.77 in1008.1 mb 0.00 in0.0 mm 0.00 in0.0 mm 0.04 in1.0 mm
05:46 PM 47.1°F8.4°C 37.8°F3.2°C 70% 5.4 mph SE8.7 kmh SE 5.4 mph8.7 kmh 29.84 in1010.5 mb 0.00 in0.0 mm 0.00 in0.0 mm 0.04 in1.0 mm
06:00 PM 45.3°F7.4°C 38.2°F3.4°C 76% 5.4 mph SSE8.7 kmh SSE 9.2 mph14.8 kmh 29.86 in1011.2 mb 0.00 in0.0 mm 0.00 in0.0 mm 0.04 in1.0 mm
06:15 PM 45.5°F7.5°C 37.7°F3.2°C 74% 8.1 mph NE13.0 kmh NE 11.4 mph18.3 kmh 29.87 in1011.5 mb 0.00 in0.0 mm 0.00 in0.0 mm 0.04 in1.0 mm
06:30 PM 45.3°F7.4°C 37.2°F2.9°C 73% 9.2 mph SE14.8 kmh SE 13.6 mph21.9 kmh 29.87 in1011.5 mb 0.00 in0.0 mm 0.00 in0.0 mm 0.04 in1.0 mm
06:45 PM 44.8°F7.1°C 37.0°F2.8°C 74% 7.6 mph S12.2 kmh S 13.6 mph21.9 kmh 29.88 in1011.9 mb 0.00 in0.0 mm 0.00 in0.0 mm 0.04 in1.0 mm
07:00 PM 44.8°F7.1°C 36.3°F2.4°C 72% 6.5 mph SSE10.5 kmh SSE 9.2 mph14.8 kmh 29.89 in1012.2 mb 0.00 in0.0 mm 0.00 in0.0 mm 0.04 in1.0 mm
07:15 PM 44.8°F7.1°C 36.7°F2.6°C 73% 10.3 mph S16.6 kmh S 17.4 mph28.0 kmh 29.90 in1012.5 mb 0.00 in0.0 mm 0.00 in0.0 mm 0.04 in1.0 mm
07:30 PM 44.2°F6.8°C 37.5°F3.1°C 77% 7.7 mph S12.4 kmh S 12.1 mph19.5 kmh 29.91 in1012.9 mb 0.01 in0.3 mm 0.04 in1.0 mm 0.05 in1.3 mm
07:45 PM 44.1°F6.7°C 36.7°F2.6°C 75% 8.9 mph S14.3 kmh S 13.6 mph21.9 kmh 29.91 in1012.9 mb 0.01 in0.3 mm 0.00 in0.0 mm 0.05 in1.3 mm
08:00 PM 44.1°F6.7°C 35.3°F1.8°C 71% 5.2 mph SE8.4 kmh SE 8.3 mph13.4 kmh 29.92 in1013.2 mb 0.01 in0.3 mm 0.00 in0.0 mm 0.05 in1.3 mm
08:15 PM 44.1°F6.7°C 35.3°F1.8°C 71% 5.4 mph NE8.7 kmh NE 9.8 mph15.8 kmh 29.93 in1013.5 mb 0.01 in0.3 mm 0.00 in0.0 mm 0.05 in1.3 mm
08:30 PM 43.7°F6.5°C 34.9°F1.6°C 71% 6.7 mph SE10.8 kmh SE 9.2 mph14.8 kmh 29.93 in1013.5 mb 0.00 in0.0 mm 0.00 in0.0 mm 0.05 in1.3 mm
08:45 PM 43.5°F6.4°C 35.5°F1.9°C 73% 5.6 mph SSE9.0 kmh SSE 9.2 mph14.8 kmh 29.94 in1013.9 mb 0.00 in0.0 mm 0.00 in0.0 mm 0.05 in1.3 mm
09:00 PM 43.5°F6.4°C 35.8°F2.1°C 74% 5.2 mph S8.4 kmh S 6.9 mph11.1 kmh 29.95 in1014.2 mb 0.00 in0.0 mm 0.00 in0.0 mm 0.05 in1.3 mm
09:15 PM 43.9°F6.6°C 35.8°F2.1°C 73% 7.6 mph SSE12.2 kmh SSE 13.0 mph20.9 kmh 29.96 in1014.6 mb 0.00 in0.0 mm 0.00 in0.0 mm 0.05 in1.3 mm
09:30 PM 43.5°F6.4°C 36.1°F2.3°C 75% 6.1 mph ESE9.8 kmh ESE 10.7 mph17.2 kmh 29.96 in1014.6 mb 0.00 in0.0 mm 0.00 in0.0 mm 0.05 in1.3 mm
09:45 PM 43.7°F6.5°C 35.6°F2.0°C 73% 6.4 mph E10.3 kmh E 10.7 mph17.2 kmh 29.97 in1014.9 mb 0.00 in0.0 mm 0.00 in0.0 mm 0.05 in1.3 mm
10:00 PM 43.3°F6.3°C 34.9°F1.6°C 72% 3.7 mph E6.0 kmh E 5.4 mph8.7 kmh 29.98 in1015.2 mb 0.00 in0.0 mm 0.00 in0.0 mm 0.05 in1.3 mm
10:15 PM 43.5°F6.4°C 34.0°F1.1°C 69% 6.0 mph E9.7 kmh E 9.8 mph15.8 kmh 29.98 in1015.2 mb 0.00 in0.0 mm 0.00 in0.0 mm 0.05 in1.3 mm
10:30 PM 43.5°F6.4°C 35.1°F1.7°C 72% 5.6 mph NW9.0 kmh NW 9.2 mph14.8 kmh 29.99 in1015.6 mb 0.00 in0.0 mm 0.00 in0.0 mm 0.05 in1.3 mm
10:45 PM 43.7°F6.5°C 35.6°F2.0°C 73% 3.9 mph SW6.3 kmh SW 6.0 mph9.7 kmh 29.99 in1015.6 mb 0.00 in0.0 mm 0.00 in0.0 mm 0.05 in1.3 mm
11:00 PM 43.7°F6.5°C 34.9°F1.6°C 71% 5.2 mph SE8.4 kmh SE 7.6 mph12.2 kmh 30.00 in1015.9 mb 0.00 in0.0 mm 0.00 in0.0 mm 0.05 in1.3 mm
11:15 PM 44.1°F6.7°C 35.3°F1.8°C 71% 8.8 mph NNE14.2 kmh NNE 13.0 mph20.9 kmh 30.01 in1016.3 mb 0.00 in0.0 mm 0.00 in0.0 mm 0.05 in1.3 mm
11:30 PM 44.1°F6.7°C 35.3°F1.8°C 71% 6.7 mph SW10.8 kmh SW 11.4 mph18.3 kmh 30.02 in1016.6 mb 0.00 in0.0 mm 0.00 in0.0 mm 0.05 in1.3 mm
11:45 PM 43.9°F6.6°C 35.1°F1.7°C 71% 5.5 mph NE8.9 kmh NE 9.2 mph14.8 kmh 30.01 in1016.3 mb 0.00 in0.0 mm 0.00 in0.0 mm 0.05 in1.3 mm